sensor_id;sensor_type;location;lat;lon;timestamp;P1;durP1;ratioP1;P2;durP2;ratioP2
77466;SDS011;66564;42.482;25.548;2023-02-26T00:00:16;15.60;;;8.95;;
77466;SDS011;66564;42.482;25.548;2023-02-26T00:02:44;13.30;;;6.97;;
77466;SDS011;66564;42.482;25.548;2023-02-26T00:05:12;24.85;;;8.38;;
77466;SDS011;66564;42.482;25.548;2023-02-26T00:07:37;14.70;;;7.85;;
77466;SDS011;66564;42.482;25.548;2023-02-26T00:10:04;13.23;;;8.50;;
77466;SDS011;66564;42.482;25.548;2023-02-26T00:12:32;19.52;;;8.82;;
77466;SDS011;66564;42.482;25.548;2023-02-26T00:14:58;14.80;;;7.40;;
77466;SDS011;66564;42.482;25.548;2023-02-26T00:20:26;19.23;;;8.15;;
77466;SDS011;66564;42.482;25.548;2023-02-26T00:22:52;18.08;;;8.32;;
77466;SDS011;66564;42.482;25.548;2023-02-26T00:25:17;21.00;;;8.00;;
77466;SDS011;66564;42.482;25.548;2023-02-26T00:27:43;16.85;;;8.18;;
77466;SDS011;66564;42.482;25.548;2023-02-26T00:30:09;16.33;;;8.40;;
77466;SDS011;66564;42.482;25.548;2023-02-26T00:32:35;16.75;;;7.03;;
77466;SDS011;66564;42.482;25.548;2023-02-26T00:35:04;14.05;;;7.35;;
77466;SDS011;66564;42.482;25.548;2023-02-26T00:37:36;17.13;;;8.48;;
77466;SDS011;66564;42.482;25.548;2023-02-26T00:42:37;12.40;;;8.13;;
77466;SDS011;66564;42.482;25.548;2023-02-26T00:45:03;15.15;;;7.65;;
77466;SDS011;66564;42.482;25.548;2023-02-26T00:47:32;15.43;;;8.18;;
77466;SDS011;66564;42.482;25.548;2023-02-26T00:55:06;19.70;;;8.45;;
77466;SDS011;66564;42.482;25.548;2023-02-26T00:57:31;18.25;;;8.02;;
77466;SDS011;66564;42.482;25.548;2023-02-26T00:59:57;15.52;;;7.85;;
77466;SDS011;66564;42.482;25.548;2023-02-26T01:02:22;16.52;;;7.22;;
77466;SDS011;66564;42.482;25.548;2023-02-26T01:04:48;23.40;;;8.70;;
77466;SDS011;66564;42.482;25.548;2023-02-26T01:07:14;16.25;;;7.75;;
77466;SDS011;66564;42.482;25.548;2023-02-26T01:09:45;12.98;;;6.95;;
77466;SDS011;66564;42.482;25.548;2023-02-26T01:12:10;14.43;;;7.50;;
77466;SDS011;66564;42.482;25.548;2023-02-26T01:14:37;16.52;;;7.35;;
77466;SDS011;66564;42.482;25.548;2023-02-26T01:22:05;19.90;;;7.07;;
77466;SDS011;66564;42.482;25.548;2023-02-26T01:24:36;12.90;;;6.07;;
77466;SDS011;66564;42.482;25.548;2023-02-26T01:27:02;14.40;;;6.88;;
77466;SDS011;66564;42.482;25.548;2023-02-26T01:29:27;20.05;;;7.90;;
77466;SDS011;66564;42.482;25.548;2023-02-26T01:31:56;15.55;;;7.03;;
77466;SDS011;66564;42.482;25.548;2023-02-26T01:34:40;17.80;;;7.05;;
77466;SDS011;66564;42.482;25.548;2023-02-26T01:42:22;19.52;;;7.18;;
77466;SDS011;66564;42.482;25.548;2023-02-26T01:47:39;16.40;;;7.07;;
77466;SDS011;66564;42.482;25.548;2023-02-26T01:50:24;15.27;;;6.90;;
77466;SDS011;66564;42.482;25.548;2023-02-26T01:55:25;12.52;;;7.20;;
77466;SDS011;66564;42.482;25.548;2023-02-26T01:57:52;13.95;;;7.07;;
77466;SDS011;66564;42.482;25.548;2023-02-26T02:00:21;13.45;;;6.95;;
77466;SDS011;66564;42.482;25.548;2023-02-26T02:02:46;14.77;;;8.07;;
77466;SDS011;66564;42.482;25.548;2023-02-26T02:05:37;14.60;;;6.47;;
77466;SDS011;66564;42.482;25.548;2023-02-26T02:08:03;13.88;;;7.22;;
77466;SDS011;66564;42.482;25.548;2023-02-26T02:10:29;13.85;;;6.13;;
77466;SDS011;66564;42.482;25.548;2023-02-26T02:13:19;14.23;;;6.40;;
77466;SDS011;66564;42.482;25.548;2023-02-26T02:25:32;16.30;;;6.65;;
77466;SDS011;66564;42.482;25.548;2023-02-26T02:27:35;20.08;;;7.30;;
77466;SDS011;66564;42.482;25.548;2023-02-26T02:33:01;13.88;;;7.25;;
77466;SDS011;66564;42.482;25.548;2023-02-26T02:35:35;16.65;;;6.50;;
77466;SDS011;66564;42.482;25.548;2023-02-26T02:38:19;16.85;;;6.57;;
77466;SDS011;66564;42.482;25.548;2023-02-26T02:40:50;18.55;;;7.78;;
77466;SDS011;66564;42.482;25.548;2023-02-26T02:45:53;16.85;;;7.57;;
77466;SDS011;66564;42.482;25.548;2023-02-26T02:52:00;10.10;;;6.25;;
77466;SDS011;66564;42.482;25.548;2023-02-26T02:55:08;11.23;;;6.45;;
77466;SDS011;66564;42.482;25.548;2023-02-26T02:57:21;12.95;;;6.18;;
77466;SDS011;66564;42.482;25.548;2023-02-26T02:59:55;15.57;;;6.93;;
77466;SDS011;66564;42.482;25.548;2023-02-26T03:02:31;15.15;;;6.47;;
77466;SDS011;66564;42.482;25.548;2023-02-26T03:05:04;13.77;;;7.30;;
77466;SDS011;66564;42.482;25.548;2023-02-26T03:07:35;13.02;;;6.85;;
77466;SDS011;66564;42.482;25.548;2023-02-26T03:10:11;18.73;;;7.20;;
77466;SDS011;66564;42.482;25.548;2023-02-26T03:12:39;17.38;;;6.28;;
77466;SDS011;66564;42.482;25.548;2023-02-26T03:15:05;13.93;;;7.28;;
77466;SDS011;66564;42.482;25.548;2023-02-26T03:20:57;17.25;;;6.43;;
77466;SDS011;66564;42.482;25.548;2023-02-26T03:23:35;22.88;;;7.05;;
77466;SDS011;66564;42.482;25.548;2023-02-26T03:26:23;19.17;;;7.55;;
77466;SDS011;66564;42.482;25.548;2023-02-26T03:29:12;22.98;;;7.95;;
77466;SDS011;66564;42.482;25.548;2023-02-26T03:31:53;13.27;;;6.75;;
77466;SDS011;66564;42.482;25.548;2023-02-26T03:37:22;17.50;;;7.38;;
77466;SDS011;66564;42.482;25.548;2023-02-26T03:39:55;25.25;;;8.35;;
77466;SDS011;66564;42.482;25.548;2023-02-26T03:42:36;20.88;;;7.32;;
77466;SDS011;66564;42.482;25.548;2023-02-26T03:47:49;19.52;;;7.75;;
77466;SDS011;66564;42.482;25.548;2023-02-26T03:50:21;20.02;;;8.25;;
77466;SDS011;66564;42.482;25.548;2023-02-26T03:52:48;16.02;;;6.55;;
77466;SDS011;66564;42.482;25.548;2023-02-26T03:55:17;18.15;;;6.70;;
77466;SDS011;66564;42.482;25.548;2023-02-26T04:00:12;19.85;;;6.65;;
77466;SDS011;66564;42.482;25.548;2023-02-26T04:05:24;16.23;;;7.03;;
77466;SDS011;66564;42.482;25.548;2023-02-26T04:07:57;19.88;;;6.85;;
77466;SDS011;66564;42.482;25.548;2023-02-26T04:10:28;22.98;;;8.00;;
77466;SDS011;66564;42.482;25.548;2023-02-26T04:13:00;18.50;;;6.50;;
77466;SDS011;66564;42.482;25.548;2023-02-26T04:15:26;18.75;;;6.90;;
77466;SDS011;66564;42.482;25.548;2023-02-26T04:17:52;19.17;;;7.10;;
77466;SDS011;66564;42.482;25.548;2023-02-26T04:20:18;18.50;;;7.30;;
77466;SDS011;66564;42.482;25.548;2023-02-26T04:22:43;16.55;;;7.32;;
77466;SDS011;66564;42.482;25.548;2023-02-26T04:25:09;24.55;;;7.40;;
77466;SDS011;66564;42.482;25.548;2023-02-26T04:27:34;25.85;;;6.88;;
77466;SDS011;66564;42.482;25.548;2023-02-26T04:30:00;16.40;;;7.22;;
77466;SDS011;66564;42.482;25.548;2023-02-26T04:32:25;22.92;;;6.78;;
77466;SDS011;66564;42.482;25.548;2023-02-26T04:34:51;23.83;;;7.60;;
77466;SDS011;66564;42.482;25.548;2023-02-26T04:37:16;16.95;;;6.72;;
77466;SDS011;66564;42.482;25.548;2023-02-26T04:39:42;17.63;;;6.72;;
77466;SDS011;66564;42.482;25.548;2023-02-26T04:42:07;17.08;;;7.03;;
77466;SDS011;66564;42.482;25.548;2023-02-26T04:44:33;21.33;;;6.82;;
77466;SDS011;66564;42.482;25.548;2023-02-26T04:46:58;18.20;;;6.72;;
77466;SDS011;66564;42.482;25.548;2023-02-26T04:49:24;22.15;;;6.85;;
77466;SDS011;66564;42.482;25.548;2023-02-26T04:51:49;22.23;;;6.93;;
77466;SDS011;66564;42.482;25.548;2023-02-26T04:54:15;16.17;;;7.07;;
77466;SDS011;66564;42.482;25.548;2023-02-26T04:56:41;23.85;;;7.68;;
77466;SDS011;66564;42.482;25.548;2023-02-26T04:59:06;20.83;;;6.90;;
77466;SDS011;66564;42.482;25.548;2023-02-26T05:01:32;17.67;;;6.75;;
77466;SDS011;66564;42.482;25.548;2023-02-26T05:03:58;22.60;;;7.50;;
77466;SDS011;66564;42.482;25.548;2023-02-26T05:06:23;17.08;;;6.97;;
77466;SDS011;66564;42.482;25.548;2023-02-26T05:08:49;21.20;;;7.90;;
77466;SDS011;66564;42.482;25.548;2023-02-26T05:11:14;18.20;;;6.93;;
77466;SDS011;66564;42.482;25.548;2023-02-26T05:13:40;21.02;;;7.65;;
77466;SDS011;66564;42.482;25.548;2023-02-26T05:16:06;18.92;;;7.50;;
77466;SDS011;66564;42.482;25.548;2023-02-26T05:18:32;16.98;;;6.70;;
77466;SDS011;66564;42.482;25.548;2023-02-26T05:20:57;13.27;;;6.32;;
77466;SDS011;66564;42.482;25.548;2023-02-26T05:23:23;23.83;;;7.75;;
77466;SDS011;66564;42.482;25.548;2023-02-26T05:25:48;19.38;;;7.72;;
77466;SDS011;66564;42.482;25.548;2023-02-26T05:28:14;22.33;;;10.38;;
77466;SDS011;66564;42.482;25.548;2023-02-26T05:30:40;16.48;;;6.43;;
77466;SDS011;66564;42.482;25.548;2023-02-26T05:33:06;18.83;;;7.97;;
77466;SDS011;66564;42.482;25.548;2023-02-26T05:35:31;25.98;;;8.23;;
77466;SDS011;66564;42.482;25.548;2023-02-26T05:37:57;17.13;;;8.25;;
77466;SDS011;66564;42.482;25.548;2023-02-26T05:40:23;25.33;;;8.43;;
77466;SDS011;66564;42.482;25.548;2023-02-26T05:42:49;17.85;;;7.90;;
77466;SDS011;66564;42.482;25.548;2023-02-26T05:45:16;16.00;;;8.70;;
77466;SDS011;66564;42.482;25.548;2023-02-26T05:47:41;25.58;;;8.55;;
77466;SDS011;66564;42.482;25.548;2023-02-26T05:50:08;21.13;;;8.77;;
77466;SDS011;66564;42.482;25.548;2023-02-26T05:52:34;19.27;;;8.68;;
77466;SDS011;66564;42.482;25.548;2023-02-26T05:54:59;21.20;;;7.38;;
77466;SDS011;66564;42.482;25.548;2023-02-26T05:57:25;22.55;;;8.68;;
77466;SDS011;66564;42.482;25.548;2023-02-26T05:59:50;26.00;;;8.18;;
77466;SDS011;66564;42.482;25.548;2023-02-26T06:02:22;15.38;;;7.60;;
77466;SDS011;66564;42.482;25.548;2023-02-26T06:05:00;15.60;;;7.40;;
77466;SDS011;66564;42.482;25.548;2023-02-26T06:07:25;20.55;;;8.73;;
77466;SDS011;66564;42.482;25.548;2023-02-26T06:09:51;20.55;;;7.80;;
77466;SDS011;66564;42.482;25.548;2023-02-26T06:12:16;12.57;;;6.43;;
77466;SDS011;66564;42.482;25.548;2023-02-26T06:14:42;18.95;;;7.97;;
77466;SDS011;66564;42.482;25.548;2023-02-26T06:17:07;17.35;;;7.97;;
77466;SDS011;66564;42.482;25.548;2023-02-26T06:19:33;19.25;;;8.40;;
77466;SDS011;66564;42.482;25.548;2023-02-26T06:22:02;19.40;;;8.50;;
77466;SDS011;66564;42.482;25.548;2023-02-26T06:24:34;12.52;;;6.93;;
77466;SDS011;66564;42.482;25.548;2023-02-26T06:27:11;21.88;;;7.88;;
77466;SDS011;66564;42.482;25.548;2023-02-26T06:29:36;14.20;;;8.02;;
77466;SDS011;66564;42.482;25.548;2023-02-26T06:32:03;19.73;;;8.00;;
77466;SDS011;66564;42.482;25.548;2023-02-26T06:34:30;24.67;;;7.97;;
77466;SDS011;66564;42.482;25.548;2023-02-26T06:36:55;23.92;;;9.15;;
77466;SDS011;66564;42.482;25.548;2023-02-26T06:39:21;32.75;;;9.43;;
77466;SDS011;66564;42.482;25.548;2023-02-26T06:41:46;22.55;;;8.85;;
77466;SDS011;66564;42.482;25.548;2023-02-26T06:44:12;29.95;;;10.25;;
77466;SDS011;66564;42.482;25.548;2023-02-26T06:46:38;50.05;;;9.73;;
77466;SDS011;66564;42.482;25.548;2023-02-26T06:49:03;17.83;;;8.05;;
77466;SDS011;66564;42.482;25.548;2023-02-26T06:51:29;19.30;;;8.00;;
77466;SDS011;66564;42.482;25.548;2023-02-26T06:53:55;17.65;;;7.65;;
77466;SDS011;66564;42.482;25.548;2023-02-26T06:56:21;17.95;;;7.43;;
77466;SDS011;66564;42.482;25.548;2023-02-26T06:58:47;18.30;;;6.50;;
77466;SDS011;66564;42.482;25.548;2023-02-26T07:01:13;13.60;;;6.68;;
77466;SDS011;66564;42.482;25.548;2023-02-26T07:03:39;23.35;;;8.38;;
77466;SDS011;66564;42.482;25.548;2023-02-26T07:06:05;17.85;;;7.35;;
77466;SDS011;66564;42.482;25.548;2023-02-26T07:08:34;20.75;;;7.75;;
77466;SDS011;66564;42.482;25.548;2023-02-26T07:11:00;19.17;;;6.68;;
77466;SDS011;66564;42.482;25.548;2023-02-26T07:13:26;17.35;;;6.90;;
77466;SDS011;66564;42.482;25.548;2023-02-26T07:15:55;17.48;;;7.40;;
77466;SDS011;66564;42.482;25.548;2023-02-26T07:18:39;23.95;;;7.22;;
77466;SDS011;66564;42.482;25.548;2023-02-26T07:21:05;32.20;;;13.90;;
77466;SDS011;66564;42.482;25.548;2023-02-26T07:23:31;21.17;;;7.53;;
77466;SDS011;66564;42.482;25.548;2023-02-26T07:25:56;20.75;;;7.88;;
77466;SDS011;66564;42.482;25.548;2023-02-26T07:28:22;21.20;;;6.88;;
77466;SDS011;66564;42.482;25.548;2023-02-26T07:30:48;16.52;;;8.20;;
77466;SDS011;66564;42.482;25.548;2023-02-26T07:33:20;15.68;;;8.38;;
77466;SDS011;66564;42.482;25.548;2023-02-26T07:35:46;18.95;;;6.82;;
77466;SDS011;66564;42.482;25.548;2023-02-26T07:38:11;16.42;;;6.50;;
77466;SDS011;66564;42.482;25.548;2023-02-26T07:40:40;26.05;;;9.00;;
77466;SDS011;66564;42.482;25.548;2023-02-26T07:43:05;17.58;;;7.25;;
77466;SDS011;66564;42.482;25.548;2023-02-26T07:45:31;20.48;;;5.70;;
77466;SDS011;66564;42.482;25.548;2023-02-26T07:47:59;23.90;;;6.57;;
77466;SDS011;66564;42.482;25.548;2023-02-26T07:50:35;17.50;;;5.60;;
77466;SDS011;66564;42.482;25.548;2023-02-26T07:53:00;16.85;;;6.68;;
77466;SDS011;66564;42.482;25.548;2023-02-26T07:55:26;27.83;;;7.72;;
77466;SDS011;66564;42.482;25.548;2023-02-26T07:58:15;18.95;;;6.55;;
77466;SDS011;66564;42.482;25.548;2023-02-26T08:00:41;20.70;;;5.65;;
77466;SDS011;66564;42.482;25.548;2023-02-26T08:03:06;19.27;;;6.13;;
77466;SDS011;66564;42.482;25.548;2023-02-26T08:05:40;13.63;;;6.25;;
77466;SDS011;66564;42.482;25.548;2023-02-26T08:08:09;17.88;;;6.05;;
77466;SDS011;66564;42.482;25.548;2023-02-26T08:10:38;16.40;;;5.53;;
77466;SDS011;66564;42.482;25.548;2023-02-26T08:13:05;15.50;;;5.78;;
77466;SDS011;66564;42.482;25.548;2023-02-26T08:15:31;19.58;;;7.32;;
77466;SDS011;66564;42.482;25.548;2023-02-26T08:17:59;20.17;;;6.05;;
77466;SDS011;66564;42.482;25.548;2023-02-26T08:20:25;17.30;;;5.80;;
77466;SDS011;66564;42.482;25.548;2023-02-26T08:22:50;19.02;;;6.03;;
77466;SDS011;66564;42.482;25.548;2023-02-26T08:25:16;15.52;;;6.00;;
77466;SDS011;66564;42.482;25.548;2023-02-26T08:27:42;17.88;;;6.05;;
77466;SDS011;66564;42.482;25.548;2023-02-26T08:30:08;12.43;;;4.88;;
77466;SDS011;66564;42.482;25.548;2023-02-26T08:33:33;15.73;;;7.82;;
77466;SDS011;66564;42.482;25.548;2023-02-26T08:36:58;25.13;;;7.68;;
77466;SDS011;66564;42.482;25.548;2023-02-26T08:40:23;12.10;;;5.40;;
77466;SDS011;66564;42.482;25.548;2023-02-26T08:43:50;14.63;;;5.53;;
77466;SDS011;66564;42.482;25.548;2023-02-26T08:47:15;16.65;;;5.40;;
77466;SDS011;66564;42.482;25.548;2023-02-26T08:50:39;17.13;;;5.40;;
77466;SDS011;66564;42.482;25.548;2023-02-26T08:53:06;16.80;;;5.72;;
77466;SDS011;66564;42.482;25.548;2023-02-26T08:55:32;21.02;;;5.70;;
77466;SDS011;66564;42.482;25.548;2023-02-26T08:57:59;17.38;;;5.50;;
77466;SDS011;66564;42.482;25.548;2023-02-26T09:00:24;18.90;;;5.45;;
77466;SDS011;66564;42.482;25.548;2023-02-26T09:02:50;18.73;;;6.80;;
77466;SDS011;66564;42.482;25.548;2023-02-26T09:06:17;14.82;;;5.88;;
77466;SDS011;66564;42.482;25.548;2023-02-26T09:09:23;17.42;;;5.65;;
77466;SDS011;66564;42.482;25.548;2023-02-26T09:12:48;15.63;;;5.38;;
77466;SDS011;66564;42.482;25.548;2023-02-26T09:16:13;20.17;;;5.50;;
77466;SDS011;66564;42.482;25.548;2023-02-26T09:19:38;14.63;;;5.75;;
77466;SDS011;66564;42.482;25.548;2023-02-26T09:23:04;16.63;;;5.40;;
77466;SDS011;66564;42.482;25.548;2023-02-26T09:26:30;14.93;;;4.57;;
77466;SDS011;66564;42.482;25.548;2023-02-26T09:29:58;15.93;;;5.25;;
77466;SDS011;66564;42.482;25.548;2023-02-26T09:33:23;15.38;;;4.78;;
77466;SDS011;66564;42.482;25.548;2023-02-26T09:35:56;15.48;;;6.05;;
77466;SDS011;66564;42.482;25.548;2023-02-26T09:38:25;14.15;;;4.68;;
77466;SDS011;66564;42.482;25.548;2023-02-26T09:56:00;19.60;;;4.80;;
77466;SDS011;66564;42.482;25.548;2023-02-26T09:59:26;14.10;;;5.20;;
77466;SDS011;66564;42.482;25.548;2023-02-26T10:04:55;14.13;;;4.72;;
77466;SDS011;66564;42.482;25.548;2023-02-26T10:08:01;17.35;;;4.88;;
77466;SDS011;66564;42.482;25.548;2023-02-26T10:18:38;11.55;;;4.90;;
77466;SDS011;66564;42.482;25.548;2023-02-26T10:21:45;551.75;;;221.10;;
77466;SDS011;66564;42.482;25.548;2023-02-26T10:24:17;616.50;;;243.80;;
77466;SDS011;66564;42.482;25.548;2023-02-26T10:30:58;179.32;;;66.53;;
77466;SDS011;66564;42.482;25.548;2023-02-26T10:46:18;28.40;;;7.88;;
77466;SDS011;66564;42.482;25.548;2023-02-26T10:51:48;22.65;;;4.68;;
77466;SDS011;66564;42.482;25.548;2023-02-26T10:57:02;13.95;;;4.70;;
77466;SDS011;66564;42.482;25.548;2023-02-26T10:59:28;13.43;;;5.82;;
77466;SDS011;66564;42.482;25.548;2023-02-26T11:01:53;12.40;;;5.15;;
77466;SDS011;66564;42.482;25.548;2023-02-26T11:04:21;22.95;;;5.72;;
77466;SDS011;66564;42.482;25.548;2023-02-26T11:06:51;15.02;;;6.28;;
77466;SDS011;66564;42.482;25.548;2023-02-26T11:12:15;19.92;;;5.68;;
77466;SDS011;66564;42.482;25.548;2023-02-26T11:14:42;12.23;;;4.45;;
77466;SDS011;66564;42.482;25.548;2023-02-26T11:17:30;22.10;;;5.03;;
77466;SDS011;66564;42.482;25.548;2023-02-26T11:20:38;13.45;;;4.40;;
77466;SDS011;66564;42.482;25.548;2023-02-26T11:27:37;15.75;;;4.13;;
77466;SDS011;66564;42.482;25.548;2023-02-26T11:31:04;8.45;;;4.32;;
77466;SDS011;66564;42.482;25.548;2023-02-26T11:34:26;16.60;;;4.80;;
77466;SDS011;66564;42.482;25.548;2023-02-26T11:37:53;16.85;;;4.53;;
77466;SDS011;66564;42.482;25.548;2023-02-26T11:41:20;14.80;;;5.38;;
77466;SDS011;66564;42.482;25.548;2023-02-26T11:44:45;13.85;;;4.40;;
77466;SDS011;66564;42.482;25.548;2023-02-26T11:48:12;17.13;;;5.38;;
77466;SDS011;66564;42.482;25.548;2023-02-26T11:51:45;15.68;;;4.68;;
77466;SDS011;66564;42.482;25.548;2023-02-26T11:58:49;12.90;;;4.32;;
77466;SDS011;66564;42.482;25.548;2023-02-26T12:02:13;14.15;;;5.07;;
77466;SDS011;66564;42.482;25.548;2023-02-26T12:05:37;10.80;;;4.38;;
77466;SDS011;66564;42.482;25.548;2023-02-26T12:09:03;13.82;;;5.05;;
77466;SDS011;66564;42.482;25.548;2023-02-26T12:15:56;13.35;;;5.07;;
77466;SDS011;66564;42.482;25.548;2023-02-26T12:27:53;7.25;;;3.63;;
77466;SDS011;66564;42.482;25.548;2023-02-26T12:41:07;19.80;;;6.80;;
77466;SDS011;66564;42.482;25.548;2023-02-26T12:43:47;16.48;;;6.78;;
77466;SDS011;66564;42.482;25.548;2023-02-26T13:05:47;22.63;;;6.28;;
77466;SDS011;66564;42.482;25.548;2023-02-26T13:19:34;18.75;;;4.50;;
77466;SDS011;66564;42.482;25.548;2023-02-26T13:22:37;11.07;;;4.80;;
77466;SDS011;66564;42.482;25.548;2023-02-26T13:25:19;16.00;;;5.10;;
77466;SDS011;66564;42.482;25.548;2023-02-26T13:27:45;18.42;;;5.13;;
77466;SDS011;66564;42.482;25.548;2023-02-26T13:30:20;16.05;;;4.55;;
77466;SDS011;66564;42.482;25.548;2023-02-26T13:32:48;15.65;;;4.63;;
77466;SDS011;66564;42.482;25.548;2023-02-26T13:35:36;17.70;;;4.82;;
77466;SDS011;66564;42.482;25.548;2023-02-26T13:38:06;16.80;;;4.63;;
77466;SDS011;66564;42.482;25.548;2023-02-26T13:41:40;10.63;;;4.72;;
77466;SDS011;66564;42.482;25.548;2023-02-26T13:52:26;17.27;;;4.95;;
77466;SDS011;66564;42.482;25.548;2023-02-26T13:54:57;17.85;;;5.10;;
77466;SDS011;66564;42.482;25.548;2023-02-26T14:00:24;14.55;;;5.00;;
77466;SDS011;66564;42.482;25.548;2023-02-26T14:11:05;21.45;;;5.65;;
77466;SDS011;66564;42.482;25.548;2023-02-26T14:16:38;15.82;;;5.78;;
77466;SDS011;66564;42.482;25.548;2023-02-26T14:21:45;17.05;;;4.47;;
77466;SDS011;66564;42.482;25.548;2023-02-26T14:24:31;20.75;;;6.13;;
77466;SDS011;66564;42.482;25.548;2023-02-26T14:35:46;19.63;;;4.78;;
77466;SDS011;66564;42.482;25.548;2023-02-26T14:39:53;13.82;;;5.93;;
77466;SDS011;66564;42.482;25.548;2023-02-26T14:42:16;20.33;;;6.47;;
77466;SDS011;66564;42.482;25.548;2023-02-26T14:44:53;13.85;;;4.53;;
77466;SDS011;66564;42.482;25.548;2023-02-26T14:47:27;15.63;;;4.95;;
77466;SDS011;66564;42.482;25.548;2023-02-26T15:00:51;12.23;;;4.15;;
77466;SDS011;66564;42.482;25.548;2023-02-26T15:04:36;13.32;;;4.97;;
77466;SDS011;66564;42.482;25.548;2023-02-26T15:24:16;16.08;;;4.35;;
77466;SDS011;66564;42.482;25.548;2023-02-26T15:27:44;20.77;;;5.38;;
77466;SDS011;66564;42.482;25.548;2023-02-26T15:31:12;15.35;;;5.25;;
77466;SDS011;66564;42.482;25.548;2023-02-26T15:34:35;11.85;;;4.97;;
77466;SDS011;66564;42.482;25.548;2023-02-26T15:38:18;13.15;;;5.13;;
77466;SDS011;66564;42.482;25.548;2023-02-26T15:44:55;13.82;;;4.65;;
77466;SDS011;66564;42.482;25.548;2023-02-26T15:51:31;20.10;;;5.72;;
77466;SDS011;66564;42.482;25.548;2023-02-26T15:55:02;12.55;;;4.68;;
77466;SDS011;66564;42.482;25.548;2023-02-26T15:58:38;12.48;;;4.80;;
77466;SDS011;66564;42.482;25.548;2023-02-26T16:02:00;19.23;;;5.03;;
77466;SDS011;66564;42.482;25.548;2023-02-26T16:04:26;16.20;;;4.53;;
77466;SDS011;66564;42.482;25.548;2023-02-26T16:07:54;15.38;;;5.47;;
77466;SDS011;66564;42.482;25.548;2023-02-26T16:11:28;18.70;;;4.93;;
77466;SDS011;66564;42.482;25.548;2023-02-26T16:14:36;13.73;;;4.53;;
77466;SDS011;66564;42.482;25.548;2023-02-26T16:17:05;15.30;;;5.63;;
77466;SDS011;66564;42.482;25.548;2023-02-26T16:19:39;19.23;;;4.95;;
77466;SDS011;66564;42.482;25.548;2023-02-26T16:22:44;13.48;;;5.47;;
77466;SDS011;66564;42.482;25.548;2023-02-26T16:27:36;11.90;;;4.57;;
77466;SDS011;66564;42.482;25.548;2023-02-26T16:30:07;16.05;;;7.00;;
77466;SDS011;66564;42.482;25.548;2023-02-26T16:32:48;13.45;;;6.05;;
77466;SDS011;66564;42.482;25.548;2023-02-26T16:35:19;19.30;;;5.68;;
77466;SDS011;66564;42.482;25.548;2023-02-26T16:37:55;18.45;;;5.68;;
77466;SDS011;66564;42.482;25.548;2023-02-26T16:43:05;16.42;;;4.82;;
77466;SDS011;66564;42.482;25.548;2023-02-26T16:49:41;16.95;;;5.25;;
77466;SDS011;66564;42.482;25.548;2023-02-26T16:53:07;22.13;;;7.43;;
77466;SDS011;66564;42.482;25.548;2023-02-26T16:56:37;16.15;;;4.90;;
77466;SDS011;66564;42.482;25.548;2023-02-26T17:00:02;14.60;;;5.30;;
77466;SDS011;66564;42.482;25.548;2023-02-26T17:03:28;13.82;;;5.05;;
77466;SDS011;66564;42.482;25.548;2023-02-26T17:07:31;18.55;;;6.13;;
77466;SDS011;66564;42.482;25.548;2023-02-26T17:10:32;13.63;;;4.80;;
77466;SDS011;66564;42.482;25.548;2023-02-26T17:13:56;12.10;;;4.75;;
77466;SDS011;66564;42.482;25.548;2023-02-26T17:17:24;13.40;;;4.60;;
77466;SDS011;66564;42.482;25.548;2023-02-26T17:20:50;16.13;;;5.25;;
77466;SDS011;66564;42.482;25.548;2023-02-26T17:24:18;13.15;;;4.95;;
77466;SDS011;66564;42.482;25.548;2023-02-26T17:27:43;17.98;;;5.50;;
77466;SDS011;66564;42.482;25.548;2023-02-26T17:31:11;19.48;;;5.18;;
77466;SDS011;66564;42.482;25.548;2023-02-26T17:34:36;17.92;;;5.70;;
77466;SDS011;66564;42.482;25.548;2023-02-26T17:38:05;19.02;;;5.18;;
77466;SDS011;66564;42.482;25.548;2023-02-26T17:41:33;26.00;;;6.35;;
77466;SDS011;66564;42.482;25.548;2023-02-26T17:45:01;26.05;;;7.07;;
77466;SDS011;66564;42.482;25.548;2023-02-26T17:48:26;15.07;;;5.15;;
77466;SDS011;66564;42.482;25.548;2023-02-26T17:51:52;17.63;;;4.95;;
77466;SDS011;66564;42.482;25.548;2023-02-26T17:55:17;18.00;;;5.53;;
77466;SDS011;66564;42.482;25.548;2023-02-26T17:58:42;18.60;;;4.55;;
77466;SDS011;66564;42.482;25.548;2023-02-26T18:02:13;24.92;;;10.02;;
77466;SDS011;66564;42.482;25.548;2023-02-26T18:05:33;16.02;;;5.70;;
77466;SDS011;66564;42.482;25.548;2023-02-26T18:08:58;16.67;;;5.55;;
77466;SDS011;66564;42.482;25.548;2023-02-26T18:12:23;13.30;;;6.10;;
77466;SDS011;66564;42.482;25.548;2023-02-26T18:15:49;19.60;;;6.45;;
77466;SDS011;66564;42.482;25.548;2023-02-26T18:19:16;12.68;;;4.65;;
77466;SDS011;66564;42.482;25.548;2023-02-26T18:22:42;19.85;;;5.30;;
77466;SDS011;66564;42.482;25.548;2023-02-26T18:25:08;15.82;;;5.22;;
77466;SDS011;66564;42.482;25.548;2023-02-26T18:28:33;13.15;;;4.70;;
77466;SDS011;66564;42.482;25.548;2023-02-26T18:31:58;10.15;;;4.78;;
77466;SDS011;66564;42.482;25.548;2023-02-26T18:35:26;16.20;;;4.78;;
77466;SDS011;66564;42.482;25.548;2023-02-26T18:38:50;15.48;;;5.18;;
77466;SDS011;66564;42.482;25.548;2023-02-26T18:42:20;19.50;;;6.65;;
77466;SDS011;66564;42.482;25.548;2023-02-26T18:48:50;15.73;;;4.80;;
77466;SDS011;66564;42.482;25.548;2023-02-26T18:52:21;16.90;;;4.88;;
77466;SDS011;66564;42.482;25.548;2023-02-26T18:55:47;16.23;;;6.43;;
77466;SDS011;66564;42.482;25.548;2023-02-26T18:59:12;16.70;;;6.10;;
77466;SDS011;66564;42.482;25.548;2023-02-26T19:02:39;12.20;;;5.22;;
77466;SDS011;66564;42.482;25.548;2023-02-26T19:06:04;13.15;;;4.63;;
77466;SDS011;66564;42.482;25.548;2023-02-26T19:09:29;18.17;;;5.18;;
77466;SDS011;66564;42.482;25.548;2023-02-26T19:11:55;17.20;;;5.68;;
77466;SDS011;66564;42.482;25.548;2023-02-26T19:14:21;17.48;;;5.97;;
77466;SDS011;66564;42.482;25.548;2023-02-26T19:16:48;15.25;;;4.38;;
77466;SDS011;66564;42.482;25.548;2023-02-26T19:19:14;17.27;;;7.95;;
77466;SDS011;66564;42.482;25.548;2023-02-26T19:21:41;13.80;;;4.63;;
77466;SDS011;66564;42.482;25.548;2023-02-26T19:25:09;11.55;;;4.13;;
77466;SDS011;66564;42.482;25.548;2023-02-26T19:28:34;10.27;;;5.07;;
77466;SDS011;66564;42.482;25.548;2023-02-26T19:32:00;17.45;;;4.90;;
77466;SDS011;66564;42.482;25.548;2023-02-26T19:34:49;16.05;;;4.43;;
77466;SDS011;66564;42.482;25.548;2023-02-26T19:38:15;19.15;;;5.50;;
77466;SDS011;66564;42.482;25.548;2023-02-26T19:41:40;13.93;;;5.40;;
77466;SDS011;66564;42.482;25.548;2023-02-26T19:45:05;17.27;;;4.57;;
77466;SDS011;66564;42.482;25.548;2023-02-26T19:48:31;16.77;;;5.03;;
77466;SDS011;66564;42.482;25.548;2023-02-26T19:51:56;22.35;;;6.30;;
77466;SDS011;66564;42.482;25.548;2023-02-26T19:55:21;20.50;;;5.03;;
77466;SDS011;66564;42.482;25.548;2023-02-26T19:58:08;14.13;;;4.60;;
77466;SDS011;66564;42.482;25.548;2023-02-26T20:00:34;17.73;;;4.72;;
77466;SDS011;66564;42.482;25.548;2023-02-26T20:02:59;24.35;;;5.60;;
77466;SDS011;66564;42.482;25.548;2023-02-26T20:05:25;14.25;;;4.60;;
77466;SDS011;66564;42.482;25.548;2023-02-26T20:07:50;16.48;;;4.45;;
77466;SDS011;66564;42.482;25.548;2023-02-26T20:10:16;14.70;;;5.43;;
77466;SDS011;66564;42.482;25.548;2023-02-26T20:12:43;15.88;;;4.60;;
77466;SDS011;66564;42.482;25.548;2023-02-26T20:15:11;12.80;;;4.97;;